createdAt,value
2019-04-29T00:02:28.800Z,7.61
2019-04-29T00:04:59.311Z,7.65
2019-04-29T00:07:29.914Z,7.59
2019-04-29T00:10:00.491Z,7.60
2019-04-29T00:12:31.744Z,7.61
2019-04-29T00:15:13.283Z,7.60
2019-04-29T00:17:50.323Z,7.61
2019-04-29T00:20:28.976Z,7.62
2019-04-29T00:22:59.501Z,7.62
2019-04-29T00:25:30.072Z,7.57
2019-04-29T00:28:00.592Z,7.56
2019-04-29T00:30:31.201Z,7.52
2019-04-29T00:33:01.753Z,7.53
2019-04-29T00:35:32.145Z,7.52
2019-04-29T00:38:20.555Z,7.47
2019-04-29T00:41:19.282Z,7.47
2019-04-29T00:43:53.673Z,7.42
2019-04-29T00:46:24.217Z,7.46
2019-04-29T00:48:54.700Z,7.51
2019-04-29T00:51:25.204Z,7.59
2019-04-29T00:54:01.248Z,7.56
2019-04-29T00:56:31.753Z,7.64
2019-04-29T00:59:02.223Z,7.57
2019-04-29T01:01:32.833Z,7.57
2019-04-29T01:04:03.334Z,7.55
2019-04-29T01:06:33.831Z,7.60
2019-04-29T01:09:07.956Z,7.62
2019-04-29T01:11:38.426Z,7.56
2019-04-29T01:14:08.903Z,7.54
2019-04-29T01:16:39.388Z,7.63
2019-04-29T01:19:09.891Z,7.67
2019-04-29T01:21:40.371Z,7.63
2019-04-29T01:24:10.887Z,7.70
2019-04-29T01:26:59.221Z,7.72
2019-04-29T01:29:30.441Z,7.78
2019-04-29T01:32:00.925Z,7.78
2019-04-29T01:34:36.864Z,7.70
2019-04-29T01:37:07.386Z,7.68
2019-04-29T01:39:43.572Z,7.71
2019-04-29T01:42:36.456Z,7.74
2019-04-29T01:45:07.013Z,7.76
2019-04-29T01:47:37.478Z,7.69
2019-04-29T01:50:08.083Z,7.69
2019-04-29T01:52:38.667Z,7.63
2019-04-29T01:55:09.147Z,7.59
2019-04-29T01:57:39.600Z,7.64
2019-04-29T02:00:12.433Z,7.74
2019-04-29T02:02:43.068Z,7.74
2019-04-29T02:05:13.541Z,7.73
2019-04-29T02:07:44.017Z,7.72
2019-04-29T02:10:26.647Z,7.65
2019-04-29T02:12:57.154Z,7.67
2019-04-29T02:15:27.608Z,7.63
2019-04-29T02:17:58.067Z,7.70
2019-04-29T02:20:28.581Z,7.60
2019-04-29T02:23:17.976Z,7.58
2019-04-29T02:25:48.971Z,7.66
2019-04-29T02:28:19.428Z,7.64
2019-04-29T02:30:51.207Z,7.63
2019-04-29T02:33:21.681Z,7.59
2019-04-29T02:35:52.148Z,7.58
2019-04-29T02:38:41.089Z,7.62
2019-04-29T02:41:39.772Z,7.62
2019-04-29T02:44:11.885Z,7.62
2019-04-29T02:46:42.371Z,7.56
2019-04-29T02:49:12.862Z,7.59
2019-04-29T02:51:47.056Z,7.68
2019-04-29T02:54:17.544Z,7.68
2019-04-29T02:56:52.423Z,7.76
2019-04-29T02:59:28.828Z,7.73
2019-04-29T03:02:07.975Z,7.72
2019-04-29T03:04:57.365Z,7.82
2019-04-29T03:07:27.865Z,7.82
2019-04-29T03:09:58.348Z,7.88
2019-04-29T03:12:28.820Z,7.90
2019-04-29T03:15:00.124Z,8.03
2019-04-29T03:17:31.308Z,7.97
2019-04-29T03:20:13.104Z,8.00
2019-04-29T03:22:44.349Z,8.09
2019-04-29T03:25:14.920Z,8.05
2019-04-29T03:27:45.434Z,8.02
2019-04-29T03:30:16.109Z,8.02
2019-04-29T03:32:46.622Z,8.09
2019-04-29T03:35:17.130Z,8.18
2019-04-29T03:37:47.609Z,8.26
2019-04-29T03:40:19.343Z,8.17
2019-04-29T03:42:49.970Z,8.08
2019-04-29T03:45:20.499Z,8.06
2019-04-29T03:47:51.028Z,8.17
2019-04-29T03:50:21.553Z,8.18
2019-04-29T03:52:52.035Z,8.10
2019-04-29T03:55:38.276Z,8.03
2019-04-29T03:57:54.728Z,8.08
2019-04-29T04:00:25.206Z,8.13
2019-04-29T04:03:04.368Z,8.06
2019-04-29T04:05:46.008Z,8.14
2019-04-29T04:08:32.221Z,8.11
2019-04-29T04:11:02.679Z,8.16
2019-04-29T04:13:33.132Z,8.09
2019-04-29T04:16:04.640Z,8.11
2019-04-29T04:18:35.389Z,8.13
2019-04-29T04:21:05.847Z,8.14
2019-04-29T04:23:36.263Z,8.12
2019-04-29T04:26:06.720Z,8.16
2019-04-29T04:28:37.218Z,8.26
2019-04-29T04:31:07.698Z,8.27
2019-04-29T04:33:38.234Z,8.29
2019-04-29T04:36:08.710Z,8.29
2019-04-29T04:38:39.199Z,8.24
2019-04-29T04:41:11.541Z,8.24
2019-04-29T04:43:41.933Z,8.29
2019-04-29T04:46:12.508Z,8.33
2019-04-29T04:48:42.966Z,8.29
2019-04-29T04:51:13.421Z,8.33
2019-04-29T04:53:43.931Z,8.24
2019-04-29T04:56:14.369Z,8.22
2019-04-29T04:58:44.860Z,8.31
2019-04-29T05:01:15.347Z,8.30
2019-04-29T05:03:45.802Z,8.33
2019-04-29T05:06:16.275Z,8.27
2019-04-29T05:08:46.777Z,8.34
2019-04-29T05:11:17.251Z,8.32
2019-04-29T05:13:47.783Z,8.34
2019-04-29T05:16:18.173Z,8.32
2019-04-29T05:18:48.639Z,8.39
2019-04-29T05:21:19.018Z,8.41
2019-04-29T05:23:49.578Z,8.48
2019-04-29T05:26:20.068Z,8.42
2019-04-29T05:28:50.513Z,8.47
2019-04-29T05:31:21.008Z,8.44
2019-04-29T05:33:51.500Z,8.40
2019-04-29T05:36:34.096Z,8.49
2019-04-29T05:39:21.803Z,8.44
2019-04-29T05:41:52.274Z,8.48
2019-04-29T05:44:37.394Z,8.54
2019-04-29T05:47:12.441Z,8.57
2019-04-29T05:49:48.068Z,8.57
2019-04-29T05:52:49.732Z,8.57
2019-04-29T05:55:30.387Z,8.59
2019-04-29T05:58:13.357Z,8.59
2019-04-29T06:00:51.335Z,8.66
2019-04-29T06:03:21.821Z,8.68
2019-04-29T06:05:52.323Z,8.69
2019-04-29T06:08:22.794Z,8.78
2019-04-29T06:10:53.313Z,8.67
2019-04-29T06:13:23.838Z,8.79
2019-04-29T06:15:54.248Z,8.87
2019-04-29T06:18:24.742Z,8.86
2019-04-29T06:21:08.375Z,8.94
2019-04-29T06:23:27.357Z,8.94
2019-04-29T06:25:57.885Z,8.90
2019-04-29T06:28:28.388Z,8.88
2019-04-29T06:30:58.974Z,8.97
2019-04-29T06:33:30.976Z,8.98
2019-04-29T06:36:01.597Z,8.99
2019-04-29T06:38:38.057Z,9.05
2019-04-29T06:41:09.743Z,9.17
2019-04-29T06:43:40.716Z,9.04
2019-04-29T06:46:11.282Z,9.09
2019-04-29T06:48:41.686Z,9.12
2019-04-29T06:51:12.232Z,9.14
2019-04-29T06:53:42.715Z,9.10
2019-04-29T06:56:13.259Z,9.02
2019-04-29T06:58:43.802Z,9.00
2019-04-29T07:01:14.304Z,9.03
2019-04-29T07:03:44.876Z,9.02
2019-04-29T07:06:15.320Z,9.15
2019-04-29T07:08:45.772Z,9.11
2019-04-29T07:11:16.355Z,9.09
2019-04-29T07:13:46.844Z,9.16
2019-04-29T07:16:17.422Z,9.10
2019-04-29T07:18:53.537Z,9.15
2019-04-29T07:21:21.772Z,9.10
2019-04-29T07:23:52.250Z,9.14
2019-04-29T07:26:22.759Z,9.08
2019-04-29T07:28:53.773Z,9.16
2019-04-29T07:31:28.425Z,9.11
2019-04-29T07:33:58.993Z,9.07
2019-04-29T07:36:29.589Z,9.20
2019-04-29T07:39:00.071Z,9.14
2019-04-29T07:41:30.658Z,9.17
2019-04-29T07:44:01.171Z,9.27
2019-04-29T07:46:55.727Z,9.14
2019-04-29T07:49:12.713Z,9.22
2019-04-29T07:51:41.438Z,9.19
2019-04-29T07:54:15.979Z,9.25
2019-04-29T07:56:44.160Z,9.21
2019-04-29T07:59:14.734Z,9.25
2019-04-29T08:01:45.214Z,9.19
2019-04-29T08:04:15.744Z,9.17
2019-04-29T08:06:47.078Z,9.19
2019-04-29T08:09:17.667Z,9.24
2019-04-29T08:11:49.178Z,9.12
2019-04-29T08:14:22.135Z,9.13
2019-04-29T08:16:52.622Z,9.03
2019-04-29T08:19:24.642Z,9.14
2019-04-29T08:21:55.359Z,9.11
2019-04-29T08:24:25.864Z,9.20
2019-04-29T08:26:56.368Z,9.22
2019-04-29T08:29:30.945Z,9.16
2019-04-29T08:32:02.212Z,9.22
2019-04-29T08:34:31.422Z,9.19
2019-04-29T08:37:01.934Z,9.22
2019-04-29T08:39:32.426Z,9.32
2019-04-29T08:42:09.016Z,9.28
2019-04-29T08:45:05.612Z,9.32
2019-04-29T08:47:38.610Z,9.29
2019-04-29T08:50:09.280Z,9.22
2019-04-29T08:52:39.789Z,9.34
2019-04-29T08:55:10.934Z,9.31
2019-04-29T08:57:41.377Z,9.33
2019-04-29T09:00:14.070Z,9.23
2019-04-29T09:02:46.923Z,9.30
2019-04-29T09:05:16.920Z,9.38
2019-04-29T09:07:47.414Z,9.38
2019-04-29T09:10:18.550Z,9.41
2019-04-29T09:12:49.036Z,9.48
2019-04-29T09:15:20.077Z,9.51
2019-04-29T09:17:50.662Z,9.53
2019-04-29T09:20:21.318Z,9.68
2019-04-29T09:22:56.518Z,9.66
2019-04-29T09:26:02.451Z,9.68
2019-04-29T09:28:27.966Z,9.73
2019-04-29T09:30:56.513Z,9.77
2019-04-29T09:33:27.114Z,9.81
2019-04-29T09:35:57.652Z,9.83
2019-04-29T09:38:28.137Z,9.92
2019-04-29T09:41:15.741Z,9.96
2019-04-29T09:44:10.955Z,10.08
2019-04-29T09:46:41.538Z,9.96
2019-04-29T09:49:12.012Z,10.12
2019-04-29T09:51:42.447Z,10.10
2019-04-29T09:54:14.602Z,10.29
2019-04-29T09:56:45.184Z,10.40
2019-04-29T09:59:23.964Z,10.34
2019-04-29T10:02:26.378Z,10.35
2019-04-29T10:05:13.822Z,10.38
2019-04-29T10:07:44.365Z,10.51
2019-04-29T10:10:15.042Z,10.37
2019-04-29T10:12:45.586Z,10.31
2019-04-29T10:15:17.829Z,10.34
2019-04-29T10:17:56.220Z,10.42
2019-04-29T10:20:37.584Z,10.63
2019-04-29T10:23:08.226Z,10.68
2019-04-29T10:25:38.813Z,10.82
2019-04-29T10:28:09.977Z,10.85
2019-04-29T10:30:40.747Z,10.85
2019-04-29T10:33:12.941Z,11.07
2019-04-29T10:35:45.128Z,11.11
2019-04-29T10:38:15.892Z,11.22
2019-04-29T10:41:01.007Z,11.35
2019-04-29T10:43:53.824Z,11.46
2019-04-29T10:46:48.216Z,11.58
2019-04-29T10:49:25.359Z,11.65
2019-04-29T10:51:58.113Z,11.67
2019-04-29T10:54:29.910Z,12.24
2019-04-29T10:57:00.411Z,12.18
2019-04-29T10:59:36.149Z,12.25
2019-04-29T11:02:30.746Z,11.97
2019-04-29T11:05:19.854Z,11.95
2019-04-29T11:07:51.617Z,12.08
2019-04-29T11:10:26.534Z,12.40
2019-04-29T11:12:57.485Z,12.50
2019-04-29T11:15:38.039Z,12.84
2019-04-29T11:18:08.974Z,12.91
2019-04-29T11:20:39.485Z,13.12
2019-04-29T11:23:25.970Z,12.61
2019-04-29T11:26:27.578Z,12.61
2019-04-29T11:28:59.571Z,12.91
2019-04-29T11:31:30.149Z,13.29
2019-04-29T11:34:15.745Z,13.34
2019-04-29T11:36:44.450Z,13.37
2019-04-29T11:39:17.045Z,13.21
2019-04-29T11:41:50.010Z,13.08
2019-04-29T11:44:21.999Z,13.04
2019-04-29T11:46:52.222Z,12.81
2019-04-29T11:49:29.587Z,12.87
2019-04-29T11:52:09.308Z,13.09
2019-04-29T11:54:32.356Z,13.62
2019-04-29T11:57:02.932Z,14.05
2019-04-29T11:59:41.161Z,14.28
2019-04-29T12:02:45.447Z,13.82
2019-04-29T12:05:24.803Z,13.89
2019-04-29T12:07:55.415Z,14.25
2019-04-29T12:10:25.950Z,14.62
2019-04-29T12:12:58.149Z,14.94
2019-04-29T12:15:54.170Z,14.74
2019-04-29T12:18:33.983Z,14.30
2019-04-29T12:21:27.861Z,14.60
2019-04-29T12:24:00.186Z,14.77
2019-04-29T12:26:35.514Z,14.90
2019-04-29T12:29:03.167Z,15.08
2019-04-29T12:31:52.612Z,16.17
2019-04-29T12:34:40.774Z,17.73
2019-04-29T12:37:20.520Z,18.18
2019-04-29T12:40:14.450Z,19.30
2019-04-29T12:43:11.180Z,20.20
2019-04-29T12:45:46.474Z,20.20
2019-04-29T12:48:24.581Z,19.80
2019-04-29T12:50:51.103Z,20.28
2019-04-29T12:53:21.711Z,21.16
2019-04-29T12:55:54.009Z,19.24
2019-04-29T12:58:25.854Z,18.87
2019-04-29T13:01:01.128Z,20.11
2019-04-29T13:03:55.618Z,21.47
2019-04-29T13:06:39.598Z,21.82
2019-04-29T13:09:17.944Z,21.87
2019-04-29T13:11:49.607Z,22.24
2019-04-29T13:14:22.544Z,22.83
2019-04-29T13:17:14.693Z,23.48
2019-04-29T13:20:00.983Z,23.44
2019-04-29T13:22:22.024Z,23.29
2019-04-29T13:24:52.541Z,23.01
2019-04-29T13:27:25.456Z,22.87
2019-04-29T13:29:55.335Z,22.48
2019-04-29T13:32:29.856Z,21.38
2019-04-29T13:35:05.233Z,22.34
2019-04-29T13:37:33.092Z,22.63
2019-04-29T13:40:03.978Z,23.29
2019-04-29T13:42:34.536Z,24.33
2019-04-29T13:45:12.565Z,24.57
2019-04-29T13:47:57.369Z,23.78
2019-04-29T13:50:39.843Z,22.66
2019-04-29T13:53:07.278Z,22.21
2019-04-29T13:55:49.394Z,24.28
2019-04-29T13:58:12.018Z,24.38
2019-04-29T14:01:04.545Z,23.69
2019-04-29T14:03:42.152Z,23.77
2019-04-29T14:06:14.460Z,22.72
2019-04-29T14:08:43.965Z,23.01
2019-04-29T14:11:14.653Z,23.66
2019-04-29T14:13:48.242Z,24.18
2019-04-29T14:16:19.390Z,24.78
2019-04-29T14:18:50.382Z,24.35
2019-04-29T14:21:20.910Z,24.99
2019-04-29T14:23:51.513Z,25.81
2019-04-29T14:26:22.020Z,25.44
2019-04-29T14:28:52.508Z,25.57
2019-04-29T14:31:24.569Z,26.22
2019-04-29T14:34:01.364Z,24.85
2019-04-29T14:36:31.864Z,25.64
2019-04-29T14:39:02.370Z,24.37
2019-04-29T14:41:34.701Z,24.77
2019-04-29T14:44:42.547Z,24.71
2019-04-29T14:47:22.762Z,25.26
2019-04-29T14:49:56.504Z,25.14
2019-04-29T14:52:27.016Z,24.14
2019-04-29T14:54:57.600Z,24.77
2019-04-29T14:57:28.174Z,25.54
2019-04-29T14:59:59.309Z,25.73
2019-04-29T15:02:30.028Z,25.96
2019-04-29T15:05:00.657Z,25.74
2019-04-29T15:07:37.184Z,25.80
2019-04-29T15:10:09.019Z,24.94
2019-04-29T15:13:06.770Z,24.76
2019-04-29T15:16:03.366Z,25.12
2019-04-29T15:18:47.778Z,25.66
2019-04-29T15:21:31.437Z,26.03
2019-04-29T15:23:50.952Z,25.70
2019-04-29T15:26:21.476Z,26.00
2019-04-29T15:28:52.079Z,26.36
2019-04-29T15:31:26.136Z,25.86
2019-04-29T15:33:56.725Z,25.51
2019-04-29T15:36:30.728Z,24.42
2019-04-29T15:39:09.397Z,25.37
2019-04-29T15:41:33.180Z,25.10
2019-04-29T15:44:07.791Z,26.07
2019-04-29T15:46:46.134Z,26.16
2019-04-29T15:49:08.864Z,26.12
2019-04-29T15:51:39.401Z,25.14
2019-04-29T15:54:14.341Z,25.25
2019-04-29T15:56:42.157Z,24.69
2019-04-29T15:59:12.734Z,24.17
2019-04-29T16:01:43.560Z,24.94
2019-04-29T16:04:20.954Z,24.52
2019-04-29T16:07:18.919Z,25.15
2019-04-29T16:10:07.375Z,24.78
2019-04-29T16:12:45.385Z,23.88
2019-04-29T16:15:16.599Z,24.60
2019-04-29T16:17:47.125Z,24.79
2019-04-29T16:20:17.644Z,24.15
2019-04-29T16:22:48.153Z,24.03
2019-04-29T16:25:18.703Z,23.82
2019-04-29T16:27:53.373Z,23.43
2019-04-29T16:30:25.920Z,23.52
2019-04-29T16:32:53.925Z,23.96
2019-04-29T16:35:27.108Z,23.98
2019-04-29T16:37:56.713Z,23.35
2019-04-29T16:40:33.978Z,23.05
2019-04-29T16:43:07.236Z,23.15
2019-04-29T16:45:55.588Z,22.82
2019-04-29T16:48:26.237Z,22.86
2019-04-29T16:50:56.725Z,23.16
2019-04-29T16:53:27.236Z,22.81
2019-04-29T16:55:57.777Z,21.92
2019-04-29T16:58:28.360Z,22.25
2019-04-29T17:01:06.931Z,23.11
2019-04-29T17:03:37.142Z,22.59
2019-04-29T17:06:07.681Z,22.55
2019-04-29T17:09:03.578Z,22.13
2019-04-29T17:11:31.666Z,21.74
2019-04-29T17:14:03.375Z,21.28
2019-04-29T17:16:34.592Z,21.30
2019-04-29T17:19:05.248Z,21.16
2019-04-29T17:21:35.893Z,20.34
2019-04-29T17:24:06.692Z,19.21
2019-04-29T17:26:44.582Z,18.36
2019-04-29T17:29:49.489Z,17.79
2019-04-29T17:32:56.553Z,17.08
2019-04-29T17:35:29.718Z,16.92
2019-04-29T17:38:00.261Z,16.45
2019-04-29T17:40:31.364Z,16.12
2019-04-29T17:43:21.640Z,15.95
2019-04-29T17:46:03.095Z,15.51
2019-04-29T17:48:44.009Z,15.61
2019-04-29T17:51:14.680Z,15.23
2019-04-29T17:53:48.208Z,15.05
2019-04-29T17:56:40.339Z,15.20
2019-04-29T17:59:30.722Z,14.78
2019-04-29T18:02:26.492Z,14.79
2019-04-29T18:05:16.745Z,14.70
2019-04-29T18:08:00.100Z,14.34
2019-04-29T18:10:34.820Z,14.17
2019-04-29T18:13:06.848Z,14.34
2019-04-29T18:15:57.627Z,14.11
2019-04-29T18:18:18.896Z,13.79
2019-04-29T18:21:11.431Z,13.64
2019-04-29T18:24:05.939Z,13.55
2019-04-29T18:26:58.959Z,13.58
2019-04-29T18:29:29.569Z,13.23
2019-04-29T18:32:00.497Z,13.19
2019-04-29T18:34:33.677Z,13.09
2019-04-29T18:37:06.516Z,13.03
2019-04-29T18:39:42.801Z,12.95
2019-04-29T18:42:13.341Z,12.79
2019-04-29T18:44:55.098Z,12.71
2019-04-29T18:47:22.679Z,12.63
2019-04-29T18:49:48.378Z,12.44
2019-04-29T18:52:25.957Z,12.36
2019-04-29T18:54:51.261Z,12.30
2019-04-29T18:57:30.080Z,12.37
2019-04-29T18:59:55.024Z,12.12
2019-04-29T19:02:27.447Z,12.01
2019-04-29T19:05:09.148Z,11.92
2019-04-29T19:07:39.840Z,11.77
2019-04-29T19:10:14.316Z,11.72
2019-04-29T19:12:44.588Z,11.64
2019-04-29T19:15:17.889Z,11.66
2019-04-29T19:17:58.834Z,11.63
2019-04-29T19:20:20.282Z,11.89
2019-04-29T19:22:55.811Z,11.91
2019-04-29T19:25:23.013Z,11.88
2019-04-29T19:27:53.537Z,11.62
2019-04-29T19:30:29.078Z,11.43
2019-04-29T19:33:00.380Z,11.29
2019-04-29T19:35:33.718Z,11.12
2019-04-29T19:38:01.699Z,10.89
2019-04-29T19:40:40.496Z,10.66
2019-04-29T19:43:06.079Z,10.42
2019-04-29T19:45:37.415Z,10.30
2019-04-29T19:48:08.038Z,10.19
2019-04-29T19:50:39.038Z,10.06
2019-04-29T19:53:09.509Z,10.04
2019-04-29T19:55:42.103Z,10.15
2019-04-29T19:58:13.329Z,10.13
2019-04-29T20:00:46.661Z,10.12
2019-04-29T20:03:23.446Z,10.03
2019-04-29T20:05:53.145Z,9.93
2019-04-29T20:08:43.225Z,9.84
2019-04-29T20:10:58.237Z,9.85
2019-04-29T20:13:31.896Z,9.68
2019-04-29T20:16:23.152Z,9.65
2019-04-29T20:19:18.060Z,9.69
2019-04-29T20:21:47.360Z,9.65
2019-04-29T20:24:22.914Z,9.66
2019-04-29T20:26:50.340Z,9.57
2019-04-29T20:29:20.973Z,9.48
2019-04-29T20:31:53.888Z,9.46
2019-04-29T20:34:26.093Z,9.49
2019-04-29T20:36:56.153Z,9.51
2019-04-29T20:39:26.661Z,9.30
2019-04-29T20:42:01.026Z,9.13
2019-04-29T20:44:29.425Z,8.99
2019-04-29T20:47:17.044Z,8.95
2019-04-29T20:49:36.137Z,8.94
2019-04-29T20:52:20.555Z,8.92
2019-04-29T20:54:53.223Z,8.88
2019-04-29T20:57:22.141Z,8.69
2019-04-29T20:59:52.182Z,8.71
2019-04-29T21:02:31.279Z,8.64
2019-04-29T21:04:57.792Z,8.62
2019-04-29T21:07:27.339Z,8.55
2019-04-29T21:09:59.901Z,8.41
2019-04-29T21:12:41.796Z,8.40
2019-04-29T21:15:18.487Z,8.32
2019-04-29T21:17:49.031Z,8.26
2019-04-29T21:20:19.512Z,8.20
2019-04-29T21:22:52.449Z,8.14
2019-04-29T21:25:24.748Z,8.05
2019-04-29T21:27:58.229Z,8.11
2019-04-29T21:30:34.980Z,8.07
2019-04-29T21:32:58.878Z,7.85
2019-04-29T21:35:45.527Z,7.76
2019-04-29T21:38:35.237Z,7.66
2019-04-29T21:41:09.984Z,7.70
2019-04-29T21:43:42.215Z,7.66
2019-04-29T21:46:12.711Z,7.52
2019-04-29T21:48:43.222Z,7.54
2019-04-29T21:51:15.696Z,7.55
2019-04-29T21:53:46.007Z,7.51
2019-04-29T21:56:16.562Z,7.43
2019-04-29T21:58:47.024Z,7.43
2019-04-29T22:01:17.531Z,7.47
2019-04-29T22:03:48.050Z,7.43
2019-04-29T22:06:18.606Z,7.41
2019-04-29T22:08:49.111Z,7.41
2019-04-29T22:11:19.593Z,7.43
2019-04-29T22:13:50.044Z,7.34
2019-04-29T22:16:20.880Z,7.30
2019-04-29T22:18:52.154Z,7.33
2019-04-29T22:21:23.593Z,7.35
2019-04-29T22:23:55.251Z,7.35
2019-04-29T22:26:26.871Z,7.21
2019-04-29T22:29:01.608Z,7.14
2019-04-29T22:31:34.008Z,7.15
2019-04-29T22:34:02.242Z,7.17
2019-04-29T22:36:32.687Z,7.10
2019-04-29T22:39:03.269Z,7.02
2019-04-29T22:41:52.733Z,6.98
2019-04-29T22:44:23.192Z,6.92
2019-04-29T22:46:55.178Z,6.91
2019-04-29T22:49:29.125Z,6.95
2019-04-29T22:51:58.277Z,6.96
2019-04-29T22:54:28.749Z,6.89
2019-04-29T22:56:59.249Z,6.86
2019-04-29T22:59:29.812Z,6.82
2019-04-29T23:02:00.363Z,6.78
2019-04-29T23:04:30.786Z,6.83
2019-04-29T23:07:01.208Z,6.81
2019-04-29T23:09:31.593Z,6.80
2019-04-29T23:12:02.054Z,6.81
2019-04-29T23:14:32.536Z,6.76
2019-04-29T23:17:07.782Z,6.78
2019-04-29T23:19:35.482Z,6.69
2019-04-29T23:22:26.324Z,6.71
2019-04-29T23:25:25.998Z,6.65
2019-04-29T23:27:54.109Z,6.67
2019-04-29T23:30:27.877Z,6.69
2019-04-29T23:32:58.586Z,6.67
2019-04-29T23:35:29.050Z,6.65
2019-04-29T23:38:04.170Z,6.53
2019-04-29T23:40:31.768Z,6.52
2019-04-29T23:43:02.259Z,6.43
2019-04-29T23:45:32.715Z,6.42
2019-04-29T23:48:03.208Z,6.30
2019-04-29T23:50:35.793Z,6.27
2019-04-29T23:53:05.966Z,6.41
2019-04-29T23:55:36.451Z,6.43
2019-04-29T23:58:37.211Z,6.36
